Latest Weather Observations for Douglas River

IDD60801

Issued at 4:31 pm CST Tuesday 26 September 2017 (issued every 30 minutes, with the page automatically refreshed every 10 minutes)

About weather observations | Map of weather stations | Latest weather observations for NT | Other Formats
Station Details ID: 014901 Name: DOUGLAS RIVER RESEARCH FARM Lat: -13.83 Lon: 131.19 Height: 42.8 m
Data from the previous 72 hours. | See also: Recent months at Douglas River
Date/Time
CST
Temp
°C
App
Temp
°C
Dew
Point
°C
Rel
Hum
%
Delta-T
°C
Wind Press
QNH
hPa
Press
MSL
hPa
Rain since
9am
mm
Dir  Spd
km/h
Gust
km/h
Spd
kts
Gust
kts
26/04:30pm 38.4 39.9 18.0 30 13.4 WNW 7 13 4 7 1007.6 1007.3 0.0
26/04:00pm 37.1 38.4 17.6 31 12.7 S 7 13 4 7 1007.8 1007.5 0.0
26/03:30pm 37.6 38.6 17.7 31 13.0 SSW 9 13 5 7 1008.1 1007.8 0.0
26/03:00pm 36.8 37.6 18.2 33 12.2 WNW 11 17 6 9 1008.6 1008.3 0.0
26/02:30pm 35.9 37.0 18.0 34 11.7 N 9 13 5 7 1009.0 1008.7 0.0
26/02:00pm 36.5 37.3 18.2 34 12.0 SW 11 19 6 10 1009.6 1009.3 0.0
26/01:30pm 36.6 37.9 18.5 34 11.9 SSW 9 24 5 13 1010.1 1009.8 0.0
26/01:00pm 35.3 36.8 18.9 38 10.8 NW 9 17 5 9 1010.9 1010.6 0.0
26/12:30pm 34.4 35.4 19.4 41 9.9 WSW 13 20 7 11 1011.6 1011.3 0.0
26/12:00pm 33.6 35.1 19.7 44 9.2 WSW 11 19 6 10 1012.3 1012.0 0.0
26/11:30am 33.0 34.9 20.6 48 8.3 WNW 11 22 6 12 1013.0 1012.7 0.0
26/11:00am 32.5 33.9 20.3 48 8.1 W 13 20 7 11 1013.4 1013.1 0.0
26/10:30am 30.8 32.9 20.9 55 6.6 NNW 11 20 6 11 1013.8 1013.5 0.0
26/10:00am 30.9 32.8 21.4 57 6.4 NNW 13 20 7 11 1013.8 1013.5 0.0
26/09:30am 29.4 31.4 21.5 62 5.3 NW 13 19 7 10 1013.9 1013.6 0.0
26/09:00am 28.5 30.8 22.1 68 4.3 NNW 13 22 7 12 1013.8 1013.5 0.0
26/08:30am 28.5 32.0 22.8 71 3.9 NNW 9 19 5 10 1013.6 1013.3 0.0
26/08:00am 26.1 29.7 22.4 80 2.5 N 7 11 4 6 1013.5 1013.2 0.0
26/07:30am 24.1 27.6 21.8 87 1.5 N 6 7 3 4 1013.3 1013.0 0.0
26/07:00am 22.5 26.6 20.7 89 1.2 CALM 0 6 0 3 1012.9 1012.6 0.0
26/06:30am 22.2 26.3 20.7 91 1.0 CALM 0 0 0 0 1012.4 1012.1 0.0
26/06:00am 22.0 25.6 20.5 91 1.0 N 2 6 1 3 1011.8 1011.5 0.0
26/05:30am 22.1 26.2 20.7 92 0.9 CALM 0 0 0 0 1011.3 1011.0 0.0
26/05:00am 22.5 26.7 21.0 91 1.0 CALM 0 0 0 0 1010.8 1010.5 0.0
26/04:30am 22.4 26.6 21.0 92 0.9 CALM 0 0 0 0 1010.5 1010.2 0.0
26/04:00am 22.4 26.5 20.7 90 1.1 CALM 0 0 0 0 1010.4 1010.1 0.0
26/03:30am 22.6 26.9 21.2 92 0.9 CALM 0 0 0 0 1010.4 1010.1 0.0
26/03:00am 22.6 26.7 20.8 89 1.2 CALM 0 0 0 0 1010.3 1010.0 0.0
26/02:30am 24.5 27.5 20.8 80 2.4 N 6 7 3 4 1010.3 1010.0 0.0
26/02:00am 24.5 29.1 21.8 85 1.8 CALM 0 0 0 0 1010.4 1010.1 0.0
26/01:30am 24.9 29.7 22.1 84 1.9 CALM 0 0 0 0 1010.6 1010.3 0.0
26/01:00am 25.6 30.4 22.2 81 2.3 CALM 0 6 0 3 1010.7 1010.4 0.0
26/12:30am 26.0 29.6 22.4 80 2.4 NNW 7 11 4 6 1010.8 1010.5 0.0
26/12:00am 26.2 29.8 22.3 79 2.6 NNW 7 11 4 6 1010.8 1010.5 0.0
 
Date/Time
CST
Temp
°C
App
Temp
°C
Dew
Point
°C
Rel
Hum
%
Delta-T
°C
Wind Press
QNH
hPa
Press
MSL
hPa
Rain since
9am
mm
Dir  Spd
km/h
Gust
km/h
Spd
kts
Gust
kts
25/11:30pm 26.5 29.1 21.2 72 3.5 NNW 9 13 5 7 1010.9 1010.6 0.0
25/11:00pm 26.9 28.8 19.8 65 4.6 NNW 9 13 5 7 1011.0 1010.7 0.0
25/10:30pm 27.3 28.6 19.3 61 5.2 NNW 11 17 6 9 1010.8 1010.5 0.0
25/10:00pm 28.1 29.0 18.4 55 6.2 NNW 11 17 6 9 1010.6 1010.3 0.0
25/09:30pm 28.6 29.2 17.7 51 6.9 NNW 11 17 6 9 1010.4 1010.1 0.0
25/09:00pm 29.6 29.9 17.9 49 7.5 NW 13 19 7 10 1009.9 1009.6 0.0
25/08:30pm 30.3 30.8 17.4 46 8.2 NW 11 19 6 10 1009.4 1009.1 0.0
25/08:00pm 31.2 31.4 17.6 44 8.7 WNW 13 24 7 13 1008.8 1008.5 0.0
25/07:30pm 31.1 33.3 17.5 44 8.7 W 2 13 1 7 1008.4 1008.1 0.0
25/07:00pm 32.8 34.7 17.6 40 9.8 WSW 4 6 2 3 1008.0 1007.7 0.0
25/06:30pm 34.5 36.3 17.3 36 11.1 W 4 6 2 3 1007.7 1007.4 0.0
25/06:00pm 36.8 38.0 15.9 29 13.3 WNW 4 7 2 4 1007.4 1007.1 0.0
25/05:30pm 37.3 38.3 15.3 27 13.9 W 4 7 2 4 1007.2 1006.9 0.0
25/05:00pm 37.9 38.6 16.0 27 14.0 SSW 7 13 4 7 1007.3 1007.0 0.0
25/04:30pm 38.2 38.1 14.9 25 14.7 S 9 15 5 8 1007.3 1007.0 0.0
25/04:00pm 37.3 37.9 15.3 27 13.9 SSW 6 15 3 8 1007.3 1007.0 0.0
25/03:30pm 37.2 37.4 16.7 29 13.2 WNW 11 17 6 9 1007.7 1007.4 0.0
25/03:00pm 36.5 37.6 17.2 32 12.5 N 7 15 4 8 1008.2 1007.9 0.0
25/02:30pm 36.7 38.0 17.5 32 12.5 NNW 7 11 4 6 1008.7 1008.4 0.0
25/02:00pm 36.2 37.0 17.4 33 12.2 W 9 15 5 8 1009.2 1008.9 0.0
25/01:30pm 35.4 35.9 17.5 34 11.6 W 11 20 6 11 1009.8 1009.5 0.0
25/01:00pm 35.3 36.0 17.9 35 11.3 WNW 11 19 6 10 1010.4 1010.1 0.0
25/12:30pm 34.8 35.7 18.4 38 10.7 WSW 11 17 6 9 1011.0 1010.7 0.0
25/12:00pm 33.4 35.1 19.3 43 9.3 WNW 9 17 5 9 1011.6 1011.3 0.0
25/11:30am 33.6 35.5 19.7 44 9.2 NNW 9 17 5 9 1012.1 1011.8 0.0
25/11:00am 33.1 34.6 20.6 47 8.4 SW 13 22 7 12 1012.6 1012.3 0.0
25/10:30am 32.1 34.9 21.6 53 7.1 NW 9 17 5 9 1013.0 1012.7 0.0
25/10:00am 30.6 33.6 21.9 59 5.9 NW 9 15 5 8 1013.3 1013.0 0.0
25/09:30am 29.8 32.8 22.6 65 4.9 NW 11 17 6 9 1013.4 1013.1 0.0
25/09:00am 29.6 33.2 23.0 67 4.5 NNW 9 17 5 9 1013.3 1013.0 0.0
25/08:30am 28.3 31.4 22.9 72 3.7 NNW 11 15 6 8 1013.3 1013.0 0.0
25/08:00am 25.9 30.3 23.4 86 1.7 N 6 7 3 4 1013.2 1012.9 0.0
25/07:30am 24.4 28.5 22.9 91 1.0 NNE 6 7 3 4 1013.1 1012.8 0.0
25/07:00am 24.3 29.2 23.1 93 0.8 N 2 7 1 4 1012.8 1012.5 0.0
25/06:30am 24.2 28.3 23.0 93 0.8 NNW 6 7 3 4 1012.3 1012.0 0.0
25/06:00am 24.4 29.6 22.9 91 1.0 CALM 0 0 0 0 1012.1 1011.8 0.0
25/05:30am 24.5 29.0 23.0 91 1.0 NNW 4 7 2 4 1011.8 1011.5 0.0
25/05:00am 24.5 29.9 23.2 92 0.9 CALM 0 0 0 0 1011.4 1011.1 0.0
25/04:30am 24.1 29.4 23.1 94 0.7 CALM 0 0 0 0 1010.9 1010.6 0.0
25/04:00am 23.7 28.9 22.8 95 0.6 CALM 0 0 0 0 1010.8 1010.5 0.0
25/03:30am 24.3 29.4 22.7 91 1.1 CALM 0 0 0 0 1010.7 1010.4 0.0
25/03:00am 25.0 30.3 23.1 89 1.3 CALM 0 0 0 0 1010.6 1010.3 0.0
25/02:30am 25.3 29.9 23.2 88 1.4 NNW 4 6 2 3 1010.7 1010.4 0.0
25/02:00am 25.5 29.8 23.3 88 1.5 NNW 6 9 3 5 1010.7 1010.4 0.0
25/01:30am 25.8 29.9 23.3 86 1.7 NNW 7 11 4 6 1010.7 1010.4 0.0
25/01:00am 25.9 29.9 23.1 84 1.9 NNW 7 9 4 5 1010.8 1010.5 0.0
25/12:30am 25.9 29.7 22.8 83 2.1 NNW 7 11 4 6 1010.9 1010.6 0.0
25/12:00am 26.4 30.1 22.6 79 2.6 NW 7 11 4 6 1011.1 1010.8 0.0
 
Date/Time
CST
Temp
°C
App
Temp
°C
Dew
Point
°C
Rel
Hum
%
Delta-T
°C
Wind Press
QNH
hPa
Press
MSL
hPa
Rain since
9am
mm
Dir  Spd
km/h
Gust
km/h
Spd
kts
Gust
kts
24/11:30pm 27.0 30.3 22.6 77 3.0 NW 9 11 5 6 1011.2 1010.9 0.0
24/11:00pm 27.4 30.8 22.7 75 3.2 WNW 9 13 5 7 1011.2 1010.9 0.0
24/10:30pm 27.9 31.8 22.9 74 3.4 NW 7 13 4 7 1011.2 1010.9 0.0
24/10:00pm 28.4 31.5 22.8 71 3.8 WNW 11 19 6 10 1011.0 1010.7 0.0
24/09:30pm 29.0 31.9 22.5 68 4.4 NW 11 19 6 10 1010.7 1010.4 0.0
24/09:00pm 29.5 31.8 22.1 64 5.0 NW 13 19 7 10 1010.2 1009.9 0.0
24/08:30pm 30.0 32.0 21.5 60 5.7 NW 13 24 7 13 1009.6 1009.3 0.0
24/08:00pm 30.8 32.5 21.6 58 6.2 NW 15 24 8 13 1008.9 1008.6 0.0
24/07:30pm 31.7 33.4 21.7 55 6.8 NW 15 24 8 13 1008.3 1008.0 0.0
24/07:00pm 33.5 35.3 18.3 40 9.9 NW 6 9 3 5 1007.7 1007.4 0.0
24/06:30pm 34.0 37.3 19.1 41 9.8 CALM 0 4 0 2 1007.3 1007.0 0.0
24/06:00pm 36.3 37.9 17.9 33 12.0 N 6 7 3 4 1007.1 1006.8 0.0
24/05:30pm 37.0 37.8 16.4 29 13.2 NNW 7 9 4 5 1006.9 1006.6 0.0
24/05:00pm 37.0 37.7 17.1 31 12.9 N 9 17 5 9 1006.9 1006.6 0.0
24/04:30pm 37.9 39.6 17.1 29 13.5 W 4 11 2 6 1006.9 1006.6 0.0
24/04:00pm 37.7 39.6 17.7 31 13.1 SSW 4 9 2 5 1007.1 1006.8 0.0
24/03:30pm 37.3 38.0 17.1 30 13.1 NW 9 19 5 10 1007.5 1007.2 0.0
24/03:00pm 37.3 38.7 17.3 30 13.0 N 6 15 3 8 1007.8 1007.5 0.0
24/02:30pm 37.6 39.5 18.5 32 12.6 NW 6 13 3 7 1008.1 1007.8 0.0
24/02:00pm 37.9 38.8 18.5 32 12.8 SE 11 20 6 11 1008.6 1008.3 0.0
24/01:30pm 35.6 36.6 18.6 36 11.2 WNW 11 17 6 9 1009.3 1009.0 0.0
24/01:00pm 36.2 37.8 19.2 37 11.3 SSW 9 19 5 10 1009.8 1009.5 0.0
24/12:30pm 35.3 37.6 19.9 40 10.3 NNW 7 17 4 9 1010.5 1010.2 0.0
24/12:00pm 35.0 37.5 19.9 41 10.1 SSE 6 20 3 11 1011.1 1010.8 0.0
24/11:30am 33.3 35.4 20.1 45 8.8 NNW 9 19 5 10 1011.8 1011.5 0.0
24/11:00am 32.7 35.1 20.9 49 7.9 W 9 13 5 7 1012.3 1012.0 0.0
24/10:30am 31.8 33.9 20.2 50 7.7 NW 9 17 5 9 1012.8 1012.5 0.0
24/10:00am 30.4 32.7 20.6 55 6.5 N 9 15 5 8 1013.3 1013.0 0.0
24/09:30am 29.7 33.4 22.5 65 4.9 NW 7 13 4 7 1013.6 1013.3 0.0
24/09:00am 28.8 33.1 23.7 74 3.5 W 7 13 4 7 1013.7 1013.4 0.0
24/08:30am 27.4 31.8 23.8 81 2.5 WNW 7 9 4 5 1013.4 1013.1 0.0
24/08:00am 25.6 29.8 23.2 86 1.6 NNE 6 7 3 4 1013.3 1013.0 0.0
24/07:30am 24.1 29.4 23.1 94 0.7 CALM 0 0 0 0 1013.1 1012.8 0.0
24/07:00am 23.2 28.1 22.3 95 0.6 CALM 0 0 0 0 1013.0 1012.7 0.0
24/06:30am 23.0 27.9 22.3 96 0.5 CALM 0 0 0 0 1012.6 1012.3 0.0
24/06:00am 23.0 27.9 22.3 96 0.5 CALM 0 0 0 0 1012.4 1012.1 0.0
24/05:30am 22.9 27.7 22.1 95 0.5 CALM 0 0 0 0 1012.3 1012.0 0.0
24/05:00am 23.3 28.2 22.3 94 0.7 CALM 0 0 0 0 1012.1 1011.8 0.0
24/04:30am 24.2 28.3 23.0 93 0.8 NW 6 7 3 4 1011.8 1011.5 0.0
24/04:00am 24.1 28.1 23.1 94 0.7 NW 7 11 4 6 1011.6 1011.3 0.0
24/03:30am 24.1 28.3 23.2 95 0.6 WNW 6 9 3 5 1011.4 1011.1 0.0
24/03:00am 23.8 29.0 22.8 94 0.7 CALM 0 0 0 0 1011.4 1011.1 0.0
24/02:30am 24.3 29.6 23.0 92 0.9 CALM 0 0 0 0 1011.5 1011.2 0.0
24/02:00am 25.2 29.7 23.6 91 1.1 NW 6 9 3 5 1011.5 1011.2 0.0
24/01:30am 25.5 30.0 23.6 89 1.3 NW 6 7 3 4 1011.6 1011.3 0.0
24/01:00am 25.8 30.3 23.6 88 1.5 NW 6 7 3 4 1011.9 1011.6 0.0
24/12:30am 26.1 31.1 23.8 87 1.6 NW 4 7 2 4 1012.0 1011.7 0.0
24/12:00am 26.5 31.2 23.9 85 1.8 NW 6 9 3 5 1012.3 1012.0 0.0
 
Date/Time
CST
Temp
°C
App
Temp
°C
Dew
Point
°C
Rel
Hum
%
Delta-T
°C
Wind Press
QNH
hPa
Press
MSL
hPa
Rain since
9am
mm
Dir  Spd
km/h
Gust
km/h
Spd
kts
Gust
kts
23/11:30pm 26.8 31.1 23.7 83 2.1 WNW 7 11 4 6 1012.4 1012.1 0.0
23/11:00pm 27.2 31.5 23.7 81 2.4 NW 7 13 4 7 1012.4 1012.1 0.0
23/10:30pm 27.6 31.6 23.7 79 2.7 NW 9 17 5 9 1012.4 1012.1 0.0
23/10:00pm 28.0 31.1 23.5 76 3.1 NW 13 20 7 11 1012.2 1011.9 0.0
23/09:30pm 28.5 31.0 23.1 72 3.7 NNW 15 30 8 16 1011.8 1011.5 0.0
23/09:00pm 29.4 31.4 22.2 65 4.9 NW 15 24 8 13 1011.1 1010.8 0.0
23/08:30pm 30.0 31.2 21.5 60 5.7 WNW 17 28 9 15 1010.7 1010.4 0.0
23/08:00pm 30.7 32.7 22.3 61 5.7 WNW 15 20 8 11 1010.1 1009.8 0.0
23/07:30pm 31.8 33.6 21.8 55 6.8 NW 15 26 8 14 1009.6 1009.3 0.0
23/07:00pm 33.0 36.0 18.4 42 9.5 CALM 0 0 0 0 1008.9 1008.6 0.0
23/06:30pm 33.8 36.7 18.3 39 10.1 CALM 0 0 0 0 1008.7 1008.4 0.0
23/06:00pm 35.1 36.6 17.7 35 11.3 WNW 6 9 3 5 1008.5 1008.2 0.0
23/05:30pm 36.7 37.6 16.2 29 13.1 S 6 9 3 5 1008.4 1008.1 0.0
23/05:00pm 38.5 39.7 16.0 26 14.4 WSW 4 11 2 6 1008.3 1008.0 0.0

Other Formats:

Comma delimited format used in spreadsheet applications
http://www.bom.gov.au/fwo/IDD60801/IDD60801.94128.axf

JavaScript Object Notation format (JSON) in row-major order
http://www.bom.gov.au/fwo/IDD60801/IDD60801.94128.json